Time;durP1;ratioP1;P1;durP2;ratioP2;P2;SDS_P1;SDS_P2;PMS_P1;PMS_P2;Temp;Humidity;BMP_temperature;BMP_pressure;BME280_temperature;BME280_humidity;BME280_pressure;Samples;Min_cycle;Max_cycle;Signal;HPM_P1;HPM_P2
2020/12/15 00:01:25;;;;;;;;;;;14.00;99.90;;;13.30;85.78;100633.63;5053159;28;19928;-64
2020/12/15 00:03:53;;;;;;;;;;;13.80;99.90;;;13.28;86.11;100638.56;5052799;28;19970;-64
2020/12/15 00:06:21;;;;;;;;;;;13.80;99.90;;;13.26;87.19;100640.78;5053919;28;19929;-63
2020/12/15 00:08:48;;;;;;;;;;;13.80;99.90;;;13.29;86.89;100640.16;5053614;28;19925;-64
2020/12/15 00:11:19;;;;;;;;;;;13.80;99.90;;;13.29;86.14;100635.53;5053187;28;19978;-64
2020/12/15 00:13:46;;;;;;;;;;;13.80;99.90;;;13.31;86.43;100643.38;5053198;28;20342;-63
2020/12/15 00:16:18;;;;;;;;;;;13.80;99.90;;;13.34;86.90;100635.41;5053857;28;19955;-64
2020/12/15 00:18:45;;;;;;;;;;;13.90;99.90;;;13.42;86.67;100636.56;5053312;28;19939;-63
2020/12/15 00:21:20;;;;;;;;;;;13.90;99.90;;;13.47;87.46;100630.97;5053114;28;19925;-62
2020/12/15 00:23:49;;;;;;;;;;;13.90;99.90;;;13.46;87.92;100630.19;5052952;28;19929;-63
2020/12/15 00:26:16;;;;;;;;;;;14.10;99.90;;;13.43;88.44;100635.44;5053492;28;20372;-64
2020/12/15 00:28:43;;;;;;;;;;;14.00;99.90;;;13.44;89.16;100632.41;5052993;28;19979;-63
2020/12/15 00:31:11;;;;;;;;;;;14.00;99.90;;;13.46;90.29;100629.38;5053090;28;19978;-63
2020/12/15 00:33:38;;;;;;;;;;;14.00;99.90;;;13.49;90.44;100634.19;5052641;28;20347;-63
2020/12/15 00:36:05;;;;;;;;;;;14.10;99.90;;;13.53;90.51;100625.09;5053462;28;19994;-63
2020/12/15 00:38:34;;;;;;;;;;;14.10;99.90;;;13.59;90.35;100623.84;5052789;28;20011;-63
2020/12/15 00:41:01;;;;;;;;;;;14.10;99.90;;;13.64;89.75;100625.63;5052809;28;20438;-63
2020/12/15 00:43:28;;;;;;;;;;;14.20;99.90;;;13.69;89.04;100622.75;5052427;28;20394;-63
2020/12/15 00:45:55;;;;;;;;;;;14.20;99.90;;;13.72;88.77;100627.56;5053076;28;20276;-65
2020/12/15 00:48:22;;;;;;;;;;;14.20;99.90;;;13.71;89.22;100623.22;5052754;28;19925;-63
2020/12/15 00:50:52;;;;;;;;;;;;;;;13.72;89.82;100618.59;5052607;28;19929;-63
2020/12/15 00:53:19;;;;;;;;;;;14.30;99.90;;;13.69;89.12;100620.84;5052334;28;19924;-63
2020/12/15 00:55:47;;;;;;;;;;;14.20;99.90;;;13.68;88.61;100618.41;5052877;28;19925;-63
2020/12/15 00:58:14;;;;;;;;;;;14.20;99.90;;;13.67;87.36;100625.81;5051969;28;19981;-63
2020/12/15 01:00:42;;;;;;;;;;;14.20;99.90;;;13.63;85.42;100619.38;5052338;28;19928;-63
2020/12/15 01:03:09;;;;;;;;;;;14.20;99.90;;;13.61;84.55;100616.19;5052200;28;20427;-63
2020/12/15 01:05:36;;;;;;;;;;;14.10;99.90;;;13.59;84.75;100615.69;5052696;28;20445;-63
2020/12/15 01:08:04;;;;;;;;;;;14.10;99.90;;;13.58;86.21;100621.44;5052439;28;19929;-63
2020/12/15 01:10:31;;;;;;;;;;;14.10;99.90;;;13.54;86.67;100617.75;5052431;28;19925;-63
2020/12/15 01:12:59;;;;;;;;;;;14.10;99.90;;;13.49;85.46;100626.84;5051831;28;19929;-63
2020/12/15 01:15:26;;;;;;;;;;;14.00;99.90;;;13.48;85.16;100633.38;5052170;28;19928;-63
2020/12/15 01:17:53;;;;;;;;;;;14.00;99.90;;;13.45;83.26;100628.59;5052148;28;19929;-63
2020/12/15 01:20:20;;;;;;;;;;;13.90;99.90;;;13.45;83.35;100631.28;5052525;28;19999;-63
2020/12/15 01:22:48;;;;;;;;;;;14.00;99.90;;;13.45;83.21;100627.78;5051751;28;19925;-63
2020/12/15 01:25:15;;;;;;;;;;;13.90;99.90;;;13.45;83.46;100627.78;5052494;28;19929;-63
2020/12/15 01:27:42;;;;;;;;;;;14.00;99.90;;;13.44;82.88;100629.69;5052072;28;19997;-63
2020/12/15 01:30:10;;;;;;;;;;;13.90;99.90;;;13.44;82.27;100640.56;5052352;28;20430;-63
2020/12/15 01:32:37;;;;;;;;;;;13.90;99.90;;;13.40;82.39;100634.16;5051765;28;19928;-63
2020/12/15 01:35:04;;;;;;;;;;;13.90;99.90;;;13.38;82.69;100630.94;5052478;28;19979;-64
2020/12/15 01:37:31;;;;;;;;;;;14.00;99.90;;;13.37;83.32;100640.22;5052242;28;19924;-65
2020/12/15 01:39:59;;;;;;;;;;;13.90;99.90;;;13.34;83.87;100638.13;5052175;28;19979;-63
2020/12/15 01:42:26;;;;;;;;;;;13.90;99.90;;;13.34;84.69;100645.47;5051393;28;19929;-63
2020/12/15 01:44:53;;;;;;;;;;;13.90;99.90;;;13.32;85.00;100642.25;5052399;28;19975;-63
2020/12/15 01:47:22;;;;;;;;;;;13.90;99.90;;;13.29;84.79;100645.59;5052170;28;20391;-63
2020/12/15 01:49:49;;;;;;;;;;;13.90;99.90;;;13.31;84.59;100646.91;5052329;28;19924;-63
2020/12/15 01:52:17;;;;;;;;;;;13.90;99.90;;;13.36;84.64;100640.50;5050839;28;19929;-63
2020/12/15 01:54:45;;;;;;;;;;;13.90;99.90;;;13.43;84.42;100640.88;5052418;28;19998;-63
2020/12/15 01:57:13;;;;;;;;;;;;;;;13.47;84.86;100653.50;5051914;28;20327;-64
2020/12/15 01:59:40;;;;;;;;;;;14.00;99.90;;;13.45;85.50;100649.50;5052052;28;19990;-63
2020/12/15 02:02:07;;;;;;;;;;;14.00;99.90;;;13.42;85.52;100659.09;5050992;28;19978;-63
2020/12/15 02:04:36;;;;;;;;;;;14.10;99.90;;;13.38;85.06;100666.25;5052041;28;19979;-62
2020/12/15 02:07:03;;;;;;;;;;;13.90;99.90;;;13.33;85.32;100665.59;5052090;28;20289;-63
2020/12/15 02:09:30;;;;;;;;;;;14.00;99.90;;;13.30;85.73;100671.63;5051929;28;20430;-63
2020/12/15 02:11:58;;;;;;;;;;;13.90;99.90;;;13.31;86.05;100670.53;5051081;28;19975;-63
2020/12/15 02:14:25;;;;;;;;;;;13.90;99.90;;;13.31;86.22;100665.91;5051890;28;20027;-63
2020/12/15 02:16:53;;;;;;;;;;;13.90;99.90;;;13.28;85.52;100669.25;5052127;28;20338;-63
2020/12/15 02:19:21;;;;;;;;;;;13.80;99.90;;;13.35;84.79;100666.88;5051692;28;19935;-63
2020/12/15 02:21:50;;;;;;;;;;;13.90;99.90;;;13.43;84.61;100670.75;5050981;28;19925;-63
2020/12/15 02:24:18;;;;;;;;;;;14.10;99.90;;;13.44;85.39;100672.34;5051780;28;19928;-62
2020/12/15 02:26:45;;;;;;;;;;;13.90;99.90;;;13.42;86.12;100669.94;5052307;28;19929;-65
2020/12/15 02:29:12;;;;;;;;;;;13.80;99.90;;;13.40;86.28;100674.09;5055233;28;20380;-63
2020/12/15 02:31:40;;;;;;;;;;;14.00;99.90;;;13.43;86.82;100670.75;5054777;28;20415;-65
2020/12/15 02:34:07;;;;;;;;;;;14.00;99.90;;;13.42;87.30;100669.16;5055585;28;19929;-63
2020/12/15 02:36:34;;;;;;;;;;;14.00;99.90;;;13.39;86.95;100673.28;5055524;28;19948;-63
2020/12/15 02:39:07;;;;;;;;;;;13.90;99.90;;;13.43;86.75;100673.47;5055081;28;19979;-63
2020/12/15 02:41:34;;;;;;;;;;;14.00;99.90;;;13.46;87.13;100672.84;5054538;28;19932;-64
2020/12/15 02:44:04;;;;;;;;;;;14.00;99.90;;;13.48;87.37;100676.84;5055095;28;19947;-63
2020/12/15 02:46:31;;;;;;;;;;;14.00;99.90;;;13.53;87.25;100684.84;5055417;28;20376;-63
2020/12/15 02:48:58;;;;;;;;;;;14.10;99.90;;;13.56;87.47;100686.13;5055052;28;19929;-64
2020/12/15 02:51:25;;;;;;;;;;;14.10;99.90;;;13.59;87.71;100685.50;5054411;28;19979;-64
2020/12/15 02:53:53;;;;;;;;;;;14.20;99.90;;;13.64;88.49;100683.50;5054772;28;19928;-64
2020/12/15 02:56:22;;;;;;;;;;;14.20;99.90;;;13.69;89.73;100685.25;5055318;28;19928;-63
2020/12/15 02:58:49;;;;;;;;;;;14.30;99.90;;;13.73;90.25;100688.16;5054778;28;19960;-64
2020/12/15 03:01:17;;;;;;;;;;;14.30;99.90;;;13.78;89.79;100694.25;5054346;28;20073;-63
2020/12/15 03:03:44;;;;;;;;;;;14.40;99.90;;;13.81;88.08;100696.31;5054507;28;19975;-63
2020/12/15 03:06:12;;;;;;;;;;;14.40;99.90;;;13.84;87.55;100687.53;5055114;28;19929;-62
2020/12/15 03:08:39;;;;;;;;;;;14.40;99.90;;;13.88;87.77;100693.16;4138843;28;10000347;-63
2020/12/15 03:11:07;;;;;;;;;;;14.40;99.90;;;13.92;90.50;100681.31;5033835;28;19979;-64
2020/12/15 03:13:35;;;;;;;;;;;14.50;99.90;;;13.91;93.18;100693.34;5034084;28;19933;-64
2020/12/15 03:16:02;;;;;;;;;;;14.50;99.90;;;13.81;95.93;100690.91;5034907;28;19933;-64
2020/12/15 03:18:29;;;;;;;;;;;14.40;99.90;;;13.65;98.08;100693.22;5034386;28;19925;-64
2020/12/15 03:20:56;;;;;;;;;;;14.40;99.90;;;13.54;99.70;100689.19;5034214;28;19929;-63
2020/12/15 03:23:23;;;;;;;;;;;14.20;99.90;;;13.41;100.00;100695.50;5033763;28;19978;-64
2020/12/15 03:25:53;;;;;;;;;;;14.10;99.90;;;13.29;100.00;100691.75;5034526;28;19925;-63
2020/12/15 03:28:21;;;;;;;;;;;14.00;99.90;;;13.19;100.00;100697.47;5034342;28;19925;-63
2020/12/15 03:30:50;;;;;;;;;;;13.80;99.90;;;13.08;100.00;100688.75;5034089;28;19925;-64
2020/12/15 03:33:18;;;;;;;;;;;13.70;99.90;;;13.01;100.00;100700.00;5033571;28;19925;-63
2020/12/15 03:35:45;;;;;;;;;;;13.60;99.90;;;12.94;100.00;100699.66;5034317;28;19929;-62
2020/12/15 03:38:12;;;;;;;;;;;13.60;99.90;;;12.91;100.00;100702.16;5033916;28;19929;-63
2020/12/15 03:40:39;;;;;;;;;;;13.50;99.90;;;12.86;100.00;100700.38;5033666;28;19929;-63
2020/12/15 03:43:07;;;;;;;;;;;13.40;99.90;;;12.85;100.00;100700.69;5033482;28;19921;-63
2020/12/15 03:45:34;;;;;;;;;;;13.40;99.90;;;12.84;100.00;100707.22;5034138;28;19979;-63
2020/12/15 03:48:02;;;;;;;;;;;13.40;99.90;;;12.82;100.00;100698.59;5034053;28;19929;-64
2020/12/15 03:50:30;;;;;;;;;;;13.40;99.90;;;12.79;100.00;100702.72;5033934;28;19925;-63
2020/12/15 03:52:57;;;;;;;;;;;13.40;99.90;;;12.80;99.42;100704.31;5032962;28;19979;-65
2020/12/15 03:55:24;;;;;;;;;;;13.30;99.90;;;12.81;98.96;100705.94;5033874;28;19925;-63
2020/12/15 03:57:51;;;;;;;;;;;13.30;99.90;;;12.87;97.99;100712.03;5033736;28;20331;-63
2020/12/15 04:00:19;;;;;;;;;;;13.40;99.90;;;12.93;96.58;100703.47;5034806;28;19929;-63
2020/12/15 04:02:47;;;;;;;;;;;13.50;99.90;;;13.03;97.16;100708.66;5052860;28;19925;-64
2020/12/15 04:05:15;;;;;;;;;;;13.50;99.90;;;13.05;93.49;100711.06;5053390;28;19928;-63
2020/12/15 04:07:43;;;;;;;;;;;13.60;99.90;;;13.06;92.75;100715.38;5053656;28;20372;-63
2020/12/15 04:10:10;;;;;;;;;;;13.60;99.90;;;13.02;92.82;100717.09;5053711;28;20367;-63
2020/12/15 04:12:38;;;;;;;;;;;13.50;99.90;;;12.97;93.79;100715.31;5052526;28;19928;-65
2020/12/15 04:15:05;;;;;;;;;;;13.50;99.90;;;12.94;95.27;100712.41;5053550;28;19925;-64
2020/12/15 04:17:36;;;;;;;;;;;13.50;99.90;;;12.91;97.02;100711.13;5053421;28;20346;-65
2020/12/15 04:20:04;;;;;;;;;;;13.50;99.90;;;12.88;97.79;100713.66;5053441;28;20031;-64
2020/12/15 04:22:32;;;;;;;;;;;13.50;99.90;;;12.82;98.64;100707.53;5052360;28;20348;-64
2020/12/15 04:25:00;;;;;;;;;;;13.40;99.90;;;12.78;98.43;100711.16;5053607;28;19975;-65
2020/12/15 04:27:27;;;;;;;;;;;13.40;99.90;;;12.75;98.90;100718.00;5053030;28;19924;-65
2020/12/15 04:29:55;;;;;;;;;;;13.30;99.90;;;12.68;98.99;100717.63;5053290;28;19979;-64
2020/12/15 04:32:22;;;;;;;;;;;13.20;99.90;;;12.59;99.61;100719.44;5052267;28;20438;-64
2020/12/15 04:34:50;;;;;;;;;;;13.10;99.90;;;12.49;100.00;100723.19;5053228;28;19971;-65
2020/12/15 04:37:17;;;;;;;;;;;13.00;99.90;;;12.46;100.00;100729.22;5052848;28;19928;-64
2020/12/15 04:39:45;;;;;;;;;;;13.00;99.90;;;12.47;100.00;100735.44;5053184;28;20268;-65
2020/12/15 04:42:12;;;;;;;;;;;13.00;99.90;;;12.47;100.00;100732.72;5051940;28;19925;-64
2020/12/15 04:44:40;;;;;;;;;;;13.00;99.90;;;12.49;100.00;100736.75;5052917;28;20367;-64
2020/12/15 04:47:13;;;;;;;;;;;13.00;99.90;;;12.58;100.00;100740.34;5052914;28;19925;-65
2020/12/15 04:49:49;;;;;;;;;;;13.10;99.90;;;12.71;100.00;100740.63;5052804;28;19925;-64
2020/12/15 04:52:22;;;;;;;;;;;13.30;99.90;;;12.82;100.00;100734.69;5051050;28;20382;-65
2020/12/15 04:54:51;;;;;;;;;;;13.40;99.90;;;12.88;100.00;100735.34;5043458;28;19925;-65
2020/12/15 04:57:21;;;;;;;;;;;13.50;99.90;;;12.96;100.00;100740.03;5032714;28;19925;-64
2020/12/15 04:59:49;;;;;;;;;;;13.50;99.90;;;12.98;100.00;100738.63;5032727;28;19931;-64
2020/12/15 05:02:17;;;;;;;;;;;13.50;99.90;;;12.99;100.00;100734.81;5031561;28;20360;-64
2020/12/15 05:04:44;;;;;;;;;;;13.50;99.90;;;12.97;99.74;100734.31;5032623;28;20095;-64
2020/12/15 05:07:12;;;;;;;;;;;13.50;99.90;;;12.93;99.34;100741.47;5032711;28;19932;-64
2020/12/15 05:09:39;;;;;;;;;;;13.50;99.90;;;12.84;97.86;100748.72;5032663;28;19968;-64
2020/12/15 05:12:08;;;;;;;;;;;13.40;99.90;;;12.76;97.22;100752.19;5031702;28;20308;-64
2020/12/15 05:14:35;;;;;;;;;;;13.20;99.90;;;12.69;97.79;100754.50;5032456;28;19929;-64
2020/12/15 05:17:02;;;;;;;;;;;13.20;99.90;;;12.65;98.74;100755.41;5032438;28;19933;-64
2020/12/15 05:19:29;;;;;;;;;;;13.10;99.90;;;12.66;99.60;100760.53;5032357;28;19987;-65
2020/12/15 05:21:57;;;;;;;;;;;13.10;99.90;;;12.63;100.00;100763.06;5031554;28;19925;-65
2020/12/15 05:24:27;;;;;;;;;;;13.10;99.90;;;12.58;100.00;100755.84;5032356;28;19975;-64
2020/12/15 05:26:56;;;;;;;;;;;13.10;99.90;;;12.49;100.00;100769.28;5032365;28;19973;-64
2020/12/15 05:29:25;;;;;;;;;;;13.10;99.90;;;12.41;100.00;100763.78;5032136;28;19983;-64
2020/12/15 05:31:53;;;;;;;;;;;12.90;99.90;;;12.37;100.00;100766.28;5031524;28;19933;-65
2020/12/15 05:34:22;;;;;;;;;;;12.90;99.90;;;12.38;100.00;100777.94;5032329;28;19925;-64
2020/12/15 05:36:56;;;;;;;;;;;12.90;99.90;;;12.38;100.00;100772.53;5032337;28;19926;-64
2020/12/15 05:39:23;;;;;;;;;;;12.90;99.90;;;12.39;100.00;100771.41;5032150;28;19979;-64
2020/12/15 05:42:00;;;;;;;;;;;12.90;99.90;;;12.41;99.30;100778.16;5031199;28;19960;-65
2020/12/15 05:44:29;;;;;;;;;;;12.90;99.90;;;12.45;98.07;100772.94;5032170;28;20372;-65
2020/12/15 05:47:04;;;;;;;;;;;12.90;99.90;;;12.53;96.18;100772.19;5032015;28;19926;-65
2020/12/15 05:49:32;;;;;;;;;;;13.10;99.90;;;12.63;94.80;100782.03;5049060;28;19928;-64
2020/12/15 05:52:00;;;;;;;;;;;13.10;99.90;;;12.61;94.58;100775.00;5050808;28;19986;-64
2020/12/15 05:54:27;;;;;;;;;;;13.10;99.90;;;12.58;93.71;100772.13;5051901;28;19925;-65
2020/12/15 05:57:02;;;;;;;;;;;13.10;99.90;;;12.57;93.44;100778.63;5051968;28;19929;-66
2020/12/15 05:59:31;;;;;;;;;;;13.10;99.90;;;12.59;91.79;100789.97;5051751;28;19925;-65
2020/12/15 06:02:05;;;;;;;;;;;13.10;99.90;;;12.68;94.04;100790.88;5051597;28;19929;-64
2020/12/15 06:04:32;;;;;;;;;;;13.10;99.90;;;12.78;95.48;100792.56;5055763;28;20245;-64
2020/12/15 06:07:01;;;;;;;;;;;13.30;99.90;;;12.84;95.88;100794.06;5055776;28;19932;-63
2020/12/15 06:09:29;;;;;;;;;;;13.40;99.90;;;12.86;95.33;100789.13;5055823;28;19986;-64
2020/12/15 06:11:57;;;;;;;;;;;13.40;99.90;;;12.86;94.74;100799.97;5054982;28;20299;-63
2020/12/15 06:14:25;;;;;;;;;;;13.40;99.90;;;12.82;94.18;100794.38;5055653;28;20023;-63
2020/12/15 06:16:54;;;;;;;;;;;13.40;99.90;;;12.77;94.09;100790.94;5055651;28;20349;-65
2020/12/15 06:19:23;;;;;;;;;;;13.30;99.90;;;12.72;93.79;100800.00;5055497;28;19928;-65
2020/12/15 06:21:52;;;;;;;;;;;13.30;99.90;;;12.63;94.24;100801.03;5054859;28;19929;-65
2020/12/15 06:24:27;;;;;;;;;;;13.10;99.90;;;12.47;95.89;100806.75;5055402;28;19995;-65
2020/12/15 06:26:59;;;;;;;;;;;13.00;99.90;;;12.33;96.72;100807.88;5055604;28;19932;-65
2020/12/15 06:29:30;;;;;;;;;;;12.90;99.90;;;12.23;97.04;100802.66;5055284;28;19929;-66
2020/12/15 06:31:59;;;;;;;;;;;12.70;99.90;;;12.13;97.45;100806.34;5054748;28;19929;-66
2020/12/15 06:34:28;;;;;;;;;;;12.70;99.90;;;12.07;97.22;100809.47;5055032;28;19932;-63
2020/12/15 06:36:56;;;;;;;;;;;12.60;99.90;;;12.04;97.04;100813.56;5055310;28;19924;-64
2020/12/15 06:39:24;;;;;;;;;;;12.50;99.90;;;11.95;97.37;100818.88;5055163;28;19925;-63
2020/12/15 06:41:59;;;;;;;;;;;12.40;99.90;;;11.90;97.17;100821.69;5054135;28;20015;-63
2020/12/15 06:44:31;;;;;;;;;;;12.40;99.90;;;11.89;97.57;100825.50;5055001;28;19925;-63
2020/12/15 06:47:00;;;;;;;;;;;12.40;99.90;;;11.88;97.20;100829.31;5055191;28;19948;-63
2020/12/15 06:49:31;;;;;;;;;;;12.30;99.90;;;11.78;96.44;100837.63;5054951;28;20387;-63
2020/12/15 06:51:59;;;;;;;;;;;12.30;99.90;;;11.75;96.86;100834.69;5054194;28;19932;-64
2020/12/15 06:54:30;;;;;;;;;;;12.20;99.90;;;11.69;95.62;100833.16;5054656;28;19925;-63
2020/12/15 06:57:05;;;;;;;;;;;12.10;99.90;;;11.59;96.57;100836.81;5055001;28;19932;-64
2020/12/15 06:59:35;;;;;;;;;;;12.10;99.90;;;11.55;96.47;100835.00;5054812;28;20303;-64
2020/12/15 07:02:12;;;;;;;;;;;12.00;99.90;;;11.43;95.65;100833.53;5054002;28;19979;-63
2020/12/15 07:04:43;;;;;;;;;;;11.90;99.90;;;11.26;95.93;100846.81;5054481;28;19924;-64
2020/12/15 07:07:10;;;;;;;;;;;11.80;99.90;;;11.06;96.85;100851.72;5054810;28;20376;-63
2020/12/15 07:09:38;;;;;;;;;;;11.60;99.90;;;10.89;97.46;100855.72;5054691;28;20352;-63
2020/12/15 07:12:11;;;;;;;;;;;11.40;99.90;;;10.82;98.50;100857.97;5053996;28;19929;-64
2020/12/15 07:14:38;;;;;;;;;;;11.30;99.90;;;10.78;99.16;100859.66;5053565;28;19925;-64
2020/12/15 07:17:06;;;;;;;;;;;11.30;99.90;;;10.71;99.16;100856.50;5054455;28;19975;-63
2020/12/15 07:19:34;;;;;;;;;;;11.20;99.90;;;10.56;100.00;100862.09;5054351;28;19928;-64
2020/12/15 07:22:04;;;;;;;;;;;11.20;99.90;;;10.56;100.00;100872.09;5053696;28;19924;-64
2020/12/15 07:24:31;;;;;;;;;;;11.10;99.90;;;10.58;100.00;100878.03;5054356;28;20016;-63
2020/12/15 07:26:59;;;;;;;;;;;11.20;99.90;;;10.52;100.00;100874.56;5054544;28;19931;-64
2020/12/15 07:29:26;;;;;;;;;;;11.10;99.90;;;10.43;100.00;100882.50;5054182;28;19929;-63
2020/12/15 07:31:54;;;;;;;;;;;11.10;99.90;;;10.47;100.00;100892.75;5053552;28;20297;-64
2020/12/15 07:34:21;;;;;;;;;;;11.00;99.90;;;10.54;100.00;100877.81;5053715;28;20355;-64
2020/12/15 07:36:50;;;;;;;;;;;11.10;99.90;;;10.55;100.00;100887.50;5054204;28;19932;-64
2020/12/15 07:39:18;;;;;;;;;;;11.00;99.90;;;10.56;100.00;100882.91;5053859;28;19925;-63
2020/12/15 07:41:55;;;;;;;;;;;11.00;99.90;;;10.58;100.00;100886.94;5053308;28;20296;-63
2020/12/15 07:44:23;;;;;;;;;;;11.10;99.90;;;10.63;100.00;100886.09;5053973;28;19924;-64
2020/12/15 07:46:50;;;;;;;;;;;11.20;99.90;;;10.67;100.00;100874.38;5054001;28;19931;-63
2020/12/15 07:49:17;;;;;;;;;;;11.30;99.90;;;10.74;100.00;100901.09;5053706;28;20265;-64
2020/12/15 07:51:45;;;;;;;;;;;11.20;99.90;;;10.58;100.00;100895.03;5052925;28;20358;-64
2020/12/15 07:54:13;;;;;;;;;;;11.20;99.90;;;10.37;100.00;100904.47;5053833;28;19932;-63
2020/12/15 07:56:40;;;;;;;;;;;11.00;99.90;;;10.33;100.00;100898.03;5054153;28;20304;-63
2020/12/15 07:59:11;;;;;;;;;;;10.90;99.90;;;10.39;100.00;100902.31;5053612;28;20299;-63
2020/12/15 08:01:40;;;;;;;;;;;11.00;99.90;;;10.58;100.00;100903.16;5053019;28;19936;-64
2020/12/15 08:04:08;;;;;;;;;;;11.10;99.90;;;10.78;100.00;100900.22;5053616;28;19924;-63
2020/12/15 08:06:37;;;;;;;;;;;11.30;99.90;;;10.91;100.00;100906.84;5053742;28;19925;-63
2020/12/15 08:09:06;;;;;;;;;;;11.30;99.90;;;10.97;100.00;100913.81;5053498;28;19952;-63
2020/12/15 08:11:35;;;;;;;;;;;11.40;99.90;;;11.08;100.00;100909.88;5053055;28;19936;-63
2020/12/15 08:14:02;;;;;;;;;;;11.50;99.90;;;11.26;100.00;100908.25;5053232;28;19929;-62
2020/12/15 08:16:30;;;;;;;;;;;11.60;99.90;;;11.43;100.00;100911.25;5053492;28;19925;-63
2020/12/15 08:19:01;;;;;;;;;;;11.80;99.90;;;11.55;100.00;100913.56;5053106;28;19925;-65
2020/12/15 08:21:45;;;;;;;;;;;12.00;99.90;;;11.72;100.00;100911.94;5052965;28;19925;-65
2020/12/15 08:24:14;;;;;;;;;;;12.10;99.90;;;12.01;100.00;100915.25;5053418;28;20702;-65
2020/12/15 08:26:43;;;;;;;;;;;12.40;99.90;;;12.31;100.00;100913.91;5052715;28;19979;-63
2020/12/15 08:29:11;;;;;;;;;;;12.60;99.90;;;12.65;100.00;100912.75;5052996;28;19928;-64
2020/12/15 08:31:40;;;;;;;;;;;13.00;99.90;;;12.96;99.65;100911.84;5052302;28;20015;-63
2020/12/15 08:34:11;;;;;;;;;;;13.20;99.90;;;13.29;98.56;100909.00;5053110;28;19925;-63
2020/12/15 08:36:43;;;;;;;;;;;13.50;99.90;;;13.62;97.11;100915.84;5052972;28;19932;-63
2020/12/15 08:39:15;;;;;;;;;;;13.80;99.90;;;13.83;95.50;100916.19;5052936;28;19925;-63
2020/12/15 08:41:50;;;;;;;;;;;14.10;99.90;;;13.74;94.74;100918.03;5052287;28;19933;-62
2020/12/15 08:44:17;;;;;;;;;;;14.10;99.90;;;13.64;95.13;100924.50;5052934;28;19925;-63
2020/12/15 08:46:45;;;;;;;;;;;14.00;99.90;;;13.62;96.15;100924.81;5052906;28;19925;-63
2020/12/15 08:49:13;;;;;;;;;;;14.00;99.90;;;13.67;97.35;100929.31;5052643;28;20022;-63
2020/12/15 08:51:41;;;;;;;;;;;14.10;99.90;;;13.66;97.33;100927.72;5052248;28;19936;-64
2020/12/15 08:54:08;;;;;;;;;;;14.30;99.90;;;13.68;97.59;100922.75;5052747;28;19924;-63
2020/12/15 08:56:36;;;;;;;;;;;14.10;99.90;;;13.68;96.73;100926.28;5052625;28;19932;-63
2020/12/15 08:59:14;;;;;;;;;;;14.10;99.90;;;13.70;96.63;100920.56;5052420;28;19955;-64
2020/12/15 09:01:42;;;;;;;;;;;14.10;99.90;;;13.72;96.29;100923.75;5052040;28;19929;-63
2020/12/15 09:04:10;;;;;;;;;;;14.20;99.90;;;13.84;96.19;100920.50;5052549;28;19925;-63
2020/12/15 09:06:37;;;;;;;;;;;14.20;99.90;;;13.96;95.58;100931.59;5052440;28;19924;-63
2020/12/15 09:09:05;;;;;;;;;;;14.40;99.90;;;14.07;95.32;100927.53;5052467;28;19948;-64
2020/12/15 09:11:33;;;;;;;;;;;14.40;99.90;;;14.28;94.22;100925.91;5051935;28;19935;-63
2020/12/15 09:14:01;;;;;;;;;;;14.40;99.90;;;14.44;94.05;100926.34;5052196;28;19925;-63
2020/12/15 09:16:32;;;;;;;;;;;14.70;99.90;;;14.61;92.52;100929.16;5052244;28;20368;-63
2020/12/15 09:19:10;;;;;;;;;;;14.90;99.90;;;14.78;91.56;100929.19;5052125;28;19982;-64
2020/12/15 09:21:37;;;;;;;;;;;15.10;99.90;;;15.08;89.72;100927.53;5050847;28;19928;-63
2020/12/15 09:24:05;;;;;;;;;;;15.20;99.90;;;15.03;88.76;100927.69;5052235;28;20261;-63
2020/12/15 09:26:36;;;;;;;;;;;15.40;99.90;;;15.21;87.92;100930.13;5052275;28;20379;-63
2020/12/15 09:29:08;;;;;;;;;;;15.30;99.90;;;15.19;87.68;100942.47;5052124;28;20069;-65
2020/12/15 09:31:36;;;;;;;;;;;15.50;99.90;;;15.09;88.34;100932.66;5051619;28;20024;-63
2020/12/15 09:34:04;;;;;;;;;;;15.40;99.90;;;15.10;87.87;100947.91;5051968;28;20047;-62
2020/12/15 09:36:32;;;;;;;;;;;;;;;15.08;86.59;100950.13;5051713;28;19924;-63
2020/12/15 09:38:59;;;;;;;;;;;15.40;99.90;;;14.95;85.12;100951.06;5052058;28;19929;-62
2020/12/15 09:41:26;;;;;;;;;;;15.40;99.90;;;14.87;85.27;100956.44;5051794;28;19928;-63
2020/12/15 09:43:53;;;;;;;;;;;15.30;99.90;;;14.83;86.73;100966.38;5051519;28;19929;-63
2020/12/15 09:46:20;;;;;;;;;;;15.20;99.90;;;14.76;87.79;100972.28;5052257;28;19925;-63
2020/12/15 09:48:48;;;;;;;;;;;15.20;99.90;;;14.68;87.19;100964.88;5051975;28;20303;-63
2020/12/15 09:51:16;;;;;;;;;;;15.20;99.90;;;14.69;88.79;100966.47;5051886;28;19932;-63
2020/12/15 09:53:43;;;;;;;;;;;;;;;14.67;89.70;100968.72;5051114;28;19931;-63
2020/12/15 09:56:15;;;;;;;;;;;15.20;99.90;;;14.61;90.00;100970.78;5052078;28;19925;-63
2020/12/15 09:58:42;;;;;;;;;;;15.10;99.90;;;14.59;91.91;100964.81;5051807;28;19925;-63
2020/12/15 10:01:10;;;;;;;;;;;15.10;99.90;;;14.58;93.06;100976.84;5051995;28;19925;-63
2020/12/15 10:03:37;;;;;;;;;;;15.10;99.90;;;14.63;93.08;100975.88;5050855;28;20245;-64
2020/12/15 10:06:05;;;;;;;;;;;15.10;99.90;;;14.61;92.10;100987.09;5051862;28;19971;-63
2020/12/15 10:08:32;;;;;;;;;;;15.10;99.90;;;14.56;92.22;100979.06;5051606;28;19925;-63
2020/12/15 10:10:59;;;;;;;;;;;15.00;99.90;;;14.53;92.43;100981.63;5051979;28;19932;-63
2020/12/15 10:13:27;;;;;;;;;;;15.00;99.90;;;14.61;92.08;100987.09;5050316;28;19971;-64
2020/12/15 10:15:54;;;;;;;;;;;15.00;99.90;;;14.83;91.22;100978.09;5052040;28;19925;-63
2020/12/15 10:18:21;;;;;;;;;;;15.10;99.90;;;14.98;90.08;100996.72;5051678;28;20293;-64
2020/12/15 10:20:48;;;;;;;;;;;15.40;99.90;;;15.23;88.83;100984.28;5051834;28;19971;-63
2020/12/15 10:23:17;;;;;;;;;;;15.50;99.90;;;15.43;87.06;100993.78;5050531;28;19924;-63
2020/12/15 10:25:44;;;;;;;;;;;15.60;99.90;;;15.62;86.18;100986.19;5051813;28;19928;-63
2020/12/15 10:28:12;;;;;;;;;;;15.80;99.90;;;15.67;87.22;100977.81;5051612;28;19932;-64
2020/12/15 10:30:39;;;;;;;;;;;15.90;99.90;;;15.42;84.59;100984.00;5051942;28;19929;-63
2020/12/15 10:33:07;;;;;;;;;;;15.70;99.90;;;15.41;85.40;100979.69;5050605;28;19924;-63
2020/12/15 10:35:34;;;;;;;;;;;15.70;99.90;;;15.50;87.33;100975.09;5051782;28;19935;-63
2020/12/15 10:38:01;;;;;;;;;;;15.70;99.90;;;15.60;85.20;100985.66;5051309;28;19924;-63
2020/12/15 10:40:29;;;;;;;;;;;15.80;99.90;;;15.68;83.48;100980.25;5051727;28;19940;-63
2020/12/15 10:42:56;;;;;;;;;;;15.90;99.90;;;15.81;85.40;100976.53;5050620;28;19932;-63
2020/12/15 10:45:24;;;;;;;;;;;16.00;99.90;;;15.91;82.52;100975.44;5051867;28;19925;-63
2020/12/15 10:47:51;;;;;;;;;;;16.20;99.90;;;15.95;81.37;100976.41;5051216;28;19932;-63
2020/12/15 10:50:18;;;;;;;;;;;16.20;99.90;;;15.96;80.92;100982.66;5054146;28;20272;-63
2020/12/15 10:52:45;;;;;;;;;;;16.20;99.90;;;15.98;79.88;100978.47;5054366;28;20150;-64
2020/12/15 10:55:13;;;;;;;;;;;16.20;99.90;;;16.04;79.62;100979.13;5055191;28;19924;-63
2020/12/15 10:57:41;;;;;;;;;;;16.20;99.90;;;16.10;79.46;100972.38;5054802;28;20441;-63
2020/12/15 11:00:09;;;;;;;;;;;16.30;99.90;;;16.08;79.24;100974.63;5054947;28;19925;-64
2020/12/15 11:02:37;;;;;;;;;;;16.30;99.90;;;16.11;79.08;100974.75;5054045;28;20303;-66
2020/12/15 11:05:04;;;;;;;;;;;16.40;99.90;;;16.15;77.91;100973.00;5054982;28;19936;-64
2020/12/15 11:07:32;;;;;;;;;;;16.40;99.90;;;16.18;79.29;100980.53;5053883;28;19936;-63
2020/12/15 11:09:59;;;;;;;;;;;16.40;99.90;;;16.29;78.71;100970.88;5055077;28;19925;-64
2020/12/15 11:12:26;;;;;;;;;;;16.50;99.90;;;16.37;76.43;100958.34;5053727;28;19936;-63
2020/12/15 11:14:54;;;;;;;;;;;16.60;99.90;;;16.45;75.68;100962.19;5054613;28;19935;-66